Time;durP1;ratioP1;P1;durP2;ratioP2;P2;SDS_P1;SDS_P2;PMS_P1;PMS_P2;Temp;Humidity;BMP_temperature;BMP_pressure;BME280_temperature;BME280_humidity;BME280_pressure;Samples;Min_cycle;Max_cycle;Signal;HPM_P1;HPM_P2
2023/09/11 00:01:16;;;;;;;3.50;1.50;;;;;;;25.20;31.93;101055.89;103568;1302;69212;-88
2023/09/11 00:03:41;;;;;;;2.40;1.60;;;;;;;25.20;32.07;101057.70;103493;1300;69154;-88
2023/09/11 00:06:07;;;;;;;4.20;1.60;;;;;;;25.19;31.99;101058.05;103468;1300;69282;-87
2023/09/11 00:08:33;;;;;;;7.20;1.70;;;;;;;25.19;31.97;101056.88;103581;1303;69239;-87
2023/09/11 00:10:58;;;;;;;3.20;1.60;;;;;;;25.19;32.13;101057.86;103503;1301;69267;-88
2023/09/11 00:13:24;;;;;;;3.10;1.70;;;;;;;25.18;32.06;101052.81;103530;1298;69414;-88
2023/09/11 00:15:50;;;;;;;2.10;1.40;;;;;;;25.18;32.01;101054.46;103558;1297;69348;-87
2023/09/11 00:18:15;;;;;;;3.60;1.60;;;;;;;25.17;32.18;101055.70;103509;1302;69169;-87
2023/09/11 00:20:49;;;;;;;3.30;1.40;;;;;;;25.17;32.28;101055.61;103597;1296;69246;-88
2023/09/11 00:23:15;;;;;;;3.10;1.60;;;;;;;25.17;32.23;101053.04;103590;1297;69289;-87
2023/09/11 00:25:40;;;;;;;1.90;1.30;;;;;;;25.17;32.14;101056.44;103556;1297;69278;-88
2023/09/11 00:28:06;;;;;;;3.60;1.60;;;;;;;25.16;32.51;101057.11;103598;1296;69334;-88
2023/09/11 00:30:31;;;;;;;5.80;1.70;;;;;;;25.16;32.35;101056.09;103789;1296;69140;-87
2023/09/11 00:32:57;;;;;;;2.60;1.40;;;;;;;25.16;32.29;101058.30;103474;1296;69281;-87
2023/09/11 00:35:23;;;;;;;3.00;1.60;;;;;;;25.16;32.15;101057.78;103695;1296;69345;-87
2023/09/11 00:37:48;;;;;;;6.90;1.40;;;;;;;25.15;32.08;101053.56;103559;1301;69294;-88
2023/09/11 00:40:13;;;;;;;1.80;1.40;;;;;;;25.15;32.51;101051.09;103700;1297;69310;-88
2023/09/11 00:42:39;;;;;;;3.10;1.70;;;;;;;25.14;32.28;101052.02;103717;1298;70300;-88
2023/09/11 00:45:05;;;;;;;1.90;1.40;;;;;;;25.14;32.23;101050.17;103480;1297;69312;-87
2023/09/11 00:47:31;;;;;;;2.20;1.60;;;;;;;25.14;32.52;101051.41;103503;1302;69429;-87
2023/09/11 00:49:57;;;;;;;3.40;1.90;;;;;;;25.14;32.46;101051.98;103522;1300;69343;-88
2023/09/11 00:52:22;;;;;;;1.70;1.30;;;;;;;25.13;32.63;101049.48;103824;1294;69364;-88
2023/09/11 00:54:48;;;;;;;3.30;1.50;;;;;;;25.13;32.73;101050.14;103464;1297;69290;-87
2023/09/11 00:59:48;;;;;;;2.80;1.50;;;;;;;25.12;32.47;101048.19;103724;1296;69207;-88
2023/09/11 01:02:14;;;;;;;4.20;1.60;;;;;;;25.12;32.49;101047.48;103725;1301;69192;-88
2023/09/11 01:04:40;;;;;;;2.50;1.60;;;;;;;25.12;32.61;101045.05;103570;1302;69346;-88
2023/09/11 01:07:05;;;;;;;2.80;1.90;;;;;;;25.11;32.67;101048.81;103492;1304;69284;-88
2023/09/11 01:09:33;;;;;;;3.20;1.50;;;;;;;25.11;32.57;101046.81;103737;1295;69337;-87
2023/09/11 01:11:58;;;;;;;4.00;1.80;;;;;;;25.09;32.61;101047.02;103491;1301;69329;-88
2023/09/11 01:14:24;;;;;;;3.10;1.90;;;;;;;25.10;32.60;101045.88;103745;1296;69229;-87
2023/09/11 01:17:05;;;;;;;1.60;1.50;;;;;;;25.09;32.55;101046.05;103735;1299;69235;-88
2023/09/11 01:20:09;;;;;;;2.30;1.50;;;;;;;25.09;32.71;101050.15;103658;1301;69250;-87
2023/09/11 01:23:09;;;;;;;6.00;1.80;;;;;;;25.08;32.84;101046.83;103661;1297;70168;-88
2023/09/11 01:26:02;;;;;;;2.70;1.90;;;;;;;25.07;32.74;101044.10;103654;1301;69218;-88
2023/09/11 01:28:37;;;;;;;4.70;2.00;;;;;;;25.06;32.63;101043.85;103807;1298;82632;-88
2023/09/11 01:31:03;;;;;;;6.20;2.10;;;;;;;25.06;32.71;101043.40;103627;1301;69246;-87
2023/09/11 01:33:28;;;;;;;2.90;2.00;;;;;;;25.06;32.56;101042.88;103723;1299;69276;-88
2023/09/11 01:35:54;;;;;;;3.50;2.20;;;;;;;25.05;32.85;101040.57;103455;1296;69584;-87
2023/09/11 01:38:20;;;;;;;4.50;2.00;;;;;;;25.05;32.68;101036.95;103738;1297;69257;-88
2023/09/11 01:40:48;;;;;;;5.20;2.30;;;;;;;25.05;32.73;101036.96;103790;1297;69231;-88
2023/09/11 01:43:14;;;;;;;2.70;2.10;;;;;;;25.04;32.79;101034.80;103842;1297;69732;-87
2023/09/11 01:45:39;;;;;;;5.10;2.40;;;;;;;25.04;32.80;101032.76;103549;1302;69354;-88
2023/09/11 01:48:15;;;;;;;3.60;2.30;;;;;;;25.04;32.45;101033.42;103700;1302;69331;-92
2023/09/11 01:50:40;;;;;;;3.60;2.20;;;;;;;25.03;32.72;101033.63;103552;1297;73426;-88
2023/09/11 01:53:06;;;;;;;3.80;2.30;;;;;;;25.03;32.81;101038.74;103563;1302;69295;-88
2023/09/11 01:55:35;;;;;;;4.60;2.10;;;;;;;25.02;32.79;101036.11;103513;1297;69229;-88
2023/09/11 01:58:00;;;;;;;5.50;2.40;;;;;;;25.02;32.78;101038.17;103361;1297;69182;-87
2023/09/11 02:00:26;;;;;;;8.00;2.40;;;;;;;25.02;32.71;101039.42;103664;1290;69176;-87
2023/09/11 02:02:55;;;;;;;6.30;2.40;;;;;;;25.02;32.66;101038.58;103234;1302;69287;-88
2023/09/11 02:05:25;;;;;;;3.70;2.40;;;;;;;25.01;33.05;101036.95;103482;1297;69212;-88
2023/09/11 02:10:28;;;;;;;2.80;2.10;;;;;;;25.00;32.98;101035.88;103870;1296;68974;-87
2023/09/11 02:12:54;;;;;;;4.20;2.10;;;;;;;25.00;33.02;101032.73;103646;1303;69364;-87
2023/09/11 02:15:19;;;;;;;3.40;2.10;;;;;;;25.00;32.84;101032.73;103637;1296;69373;-87
2023/09/11 02:17:45;;;;;;;3.60;2.00;;;;;;;25.00;33.05;101032.73;103623;1297;69270;-88
2023/09/11 02:20:10;;;;;;;3.90;2.30;;;;;;;24.99;32.94;101032.48;103781;1301;69265;-88
2023/09/11 02:22:36;;;;;;;4.30;2.30;;;;;;;24.99;33.00;101031.35;103926;1306;67285;-88
2023/09/11 02:25:01;;;;;;;2.60;2.20;;;;;;;24.99;32.99;101028.48;103720;1301;69422;-88
2023/09/11 02:27:27;;;;;;;2.80;2.10;;;;;;;24.99;32.98;101031.87;105027;1296;69224;-88
2023/09/11 02:32:23;;;;;;;3.70;2.20;;;;;;;24.98;33.01;101026.83;105168;1292;69160;-89
2023/09/11 02:34:48;;;;;;;6.70;2.40;;;;;;;24.98;32.73;101023.38;103789;1297;69227;-88
2023/09/11 02:37:14;;;;;;;3.00;2.00;;;;;;;24.98;32.83;101026.88;103882;1299;69502;-88
2023/09/11 02:42:20;;;;;;;3.80;1.80;;;;;;;24.97;32.95;101019.89;103824;1296;69271;-87
2023/09/11 02:47:35;;;;;;;4.50;2.20;;;;;;;24.97;32.95;101020.14;83371;1304;74260;31
2023/09/11 02:50:01;;;;;;;4.80;2.00;;;;;;;24.97;33.00;101018.60;103868;1297;69134;-88
2023/09/11 02:52:26;;;;;;;8.60;2.50;;;;;;;24.96;33.15;101015.56;103700;1295;69625;-88
2023/09/11 02:55:06;;;;;;;6.60;2.10;;;;;;;24.97;33.14;101013.19;104294;1292;513791;-93
2023/09/11 02:57:32;;;;;;;3.80;2.00;;;;;;;24.96;33.23;101013.41;103830;1297;67176;-87
2023/09/11 02:59:57;;;;;;;5.20;1.80;;;;;;;24.95;33.06;101010.23;103663;1296;69041;-88
2023/09/11 03:02:23;;;;;;;6.40;2.10;;;;;;;24.95;33.03;101009.76;103530;1296;69219;-87
2023/09/11 03:04:52;;;;;;;5.60;2.10;;;;;;;24.94;33.14;101007.39;103632;1297;70267;-87
2023/09/11 03:07:20;;;;;;;4.90;2.30;;;;;;;24.93;33.34;101008.13;103693;1297;69282;-87
2023/09/11 03:09:45;;;;;;;3.90;1.90;;;;;;;24.92;33.58;101005.77;103677;1296;69067;-85
2023/09/11 03:12:11;;;;;;;6.60;2.20;;;;;;;24.88;33.63;101007.66;103708;1296;69222;-86
2023/09/11 03:14:36;;;;;;;10.70;2.50;;;;;;;24.78;33.68;101004.48;103252;1297;69275;-85
2023/09/11 03:17:03;;;;;;;7.60;2.80;;;;;;;24.67;33.73;101007.89;104670;1296;69293;-86
2023/09/11 03:19:35;;;;;;;7.50;2.80;;;;;;;24.55;33.75;101008.13;103884;1302;69291;-85
2023/09/11 03:22:00;;;;;;;8.70;3.00;;;;;;;24.43;33.97;101003.77;103475;1297;69239;-85
2023/09/11 03:24:26;;;;;;;7.40;3.10;;;;;;;24.33;34.20;101001.15;103449;1296;69711;-85
2023/09/11 03:26:51;;;;;;;5.50;2.80;;;;;;;24.24;34.44;100999.30;103416;1296;69216;-86
2023/09/11 03:29:17;;;;;;;6.60;3.20;;;;;;;24.19;34.94;101001.44;103322;1297;69292;-85
2023/09/11 03:31:43;;;;;;;7.30;3.00;;;;;;;24.13;35.03;100999.25;103515;1297;69464;-85
2023/09/11 03:34:08;;;;;;;6.90;4.10;;;;;;;24.09;35.11;100999.78;103457;1297;69242;-85
2023/09/11 03:36:34;;;;;;;5.40;3.20;;;;;;;24.05;34.96;101004.19;103474;1301;69280;-85
2023/09/11 03:38:59;;;;;;;6.80;3.50;;;;;;;23.99;34.93;101003.16;99392;1297;5492182;-85
2023/09/11 03:41:25;;;;;;;9.10;3.40;;;;;;;23.88;34.94;101004.48;103277;1297;69352;-85
2023/09/11 03:43:50;;;;;;;5.40;3.10;;;;;;;23.75;34.89;101004.36;103703;1297;69251;-84
2023/09/11 03:46:16;;;;;;;8.70;3.10;;;;;;;23.64;34.93;101013.84;103565;1296;69255;-86
2023/09/11 03:48:41;;;;;;;11.00;2.70;;;;;;;23.52;35.06;101013.72;103722;1297;68957;-85
2023/09/11 03:51:07;;;;;;;10.80;2.60;;;;;;;23.45;35.13;101014.52;103681;1297;69329;-85
2023/09/11 03:53:42;;;;;;;10.10;2.80;;;;;;;23.40;35.18;101012.14;103445;1302;69208;-89
2023/09/11 03:56:06;;;;;;;39.70;4.00;;;;;;;23.35;35.29;101011.33;103743;1296;71870;-84
2023/09/11 03:58:31;;;;;;;451.40;29.70;;;;;;;23.30;35.38;101005.65;103553;1296;69284;-84
2023/09/11 04:00:57;;;;;;;221.90;14.20;;;;;;;23.25;35.47;101006.88;103613;1297;69256;-85
2023/09/11 04:03:22;;;;;;;257.30;15.30;;;;;;;23.21;35.58;101011.03;103804;1297;69391;-87
2023/09/11 04:05:48;;;;;;;188.90;12.90;;;;;;;23.18;35.63;101011.73;104242;1296;69276;-88
2023/09/11 04:08:14;;;;;;;166.30;11.60;;;;;;;23.15;35.74;101011.38;103575;1299;69290;-88
2023/09/11 04:10:39;;;;;;;224.80;12.00;;;;;;;23.16;35.83;101010.55;103698;1301;69327;-87
2023/09/11 04:13:05;;;;;;;81.60;6.00;;;;;;;23.15;35.85;101009.21;103681;1296;69290;-87
2023/09/11 04:15:30;;;;;;;34.90;3.70;;;;;;;23.11;35.73;101007.02;103593;1297;69277;-87
2023/09/11 04:17:57;;;;;;;19.80;3.00;;;;;;;23.08;35.86;101012.98;103483;1299;69401;-87
2023/09/11 04:20:23;;;;;;;16.90;4.40;;;;;;;23.06;35.93;101008.82;103594;1296;69271;-88
2023/09/11 04:22:48;;;;;;;9.80;4.30;;;;;;;23.03;35.97;101008.92;104891;1296;69864;-87
2023/09/11 04:25:14;;;;;;;10.90;4.20;;;;;;;23.02;36.15;101007.37;105068;1295;66882;-87
2023/09/11 04:27:39;;;;;;;8.70;3.00;;;;;;;22.98;36.32;101002.09;103802;1297;69560;-87
2023/09/11 04:30:05;;;;;;;9.70;2.50;;;;;;;22.97;36.34;100999.33;103835;1296;67319;-87
2023/09/11 04:32:31;;;;;;;7.80;2.90;;;;;;;22.96;36.42;101000.60;104113;1295;69093;-88
2023/09/11 04:34:59;;;;;;;10.90;2.70;;;;;;;22.97;36.44;101004.91;104512;1297;80946;-89
2023/09/11 04:37:26;;;;;;;9.60;2.50;;;;;;;22.97;36.48;101006.10;103765;1296;69257;-90
2023/09/11 04:39:53;;;;;;;11.40;2.70;;;;;;;22.97;36.55;101006.97;104614;1296;69307;-87
2023/09/11 04:42:34;;;;;;;9.90;3.40;;;;;;;22.99;36.56;101005.84;104815;1296;69729;-89
2023/09/11 04:45:04;;;;;;;8.80;3.10;;;;;;;23.02;36.52;101004.71;104069;1297;69163;-90
2023/09/11 04:47:31;;;;;;;8.50;3.70;;;;;;;23.05;36.48;101003.02;103625;1301;82032;-89
2023/09/11 04:49:58;;;;;;;13.80;3.40;;;;;;;23.08;36.50;100999.33;103756;1297;72805;-88
2023/09/11 04:52:24;;;;;;;10.20;2.70;;;;;;;23.10;36.53;100999.79;104161;1297;69288;-87
2023/09/11 04:54:50;;;;;;;11.60;2.60;;;;;;;23.11;36.45;101003.63;104086;1297;69157;-87
2023/09/11 04:57:20;;;;;;;9.00;2.30;;;;;;;23.07;36.48;101001.58;104255;1296;76519;-88
2023/09/11 05:05:38;;;;;;;8.40;2.50;;;;;;;22.98;36.63;101001.52;85542;1305;556625;-89
2023/09/11 05:08:05;;;;;;;10.10;2.70;;;;;;;22.96;36.69;101001.89;103900;1300;67395;-86
2023/09/11 05:10:31;;;;;;;9.60;2.80;;;;;;;22.99;36.78;101003.27;104105;1299;76588;-84
2023/09/11 05:12:57;;;;;;;9.30;2.80;;;;;;;23.04;36.86;100999.02;103881;1300;69173;-87
2023/09/11 05:15:25;;;;;;;11.10;3.10;;;;;;;23.04;36.86;100999.73;104373;1296;69176;-88
2023/09/11 05:17:51;;;;;;;8.70;2.90;;;;;;;23.05;36.84;100996.70;104387;1299;69208;-84
2023/09/11 05:23:34;;;;;;;14.40;2.90;;;;;;;23.01;36.84;100999.58;104381;1299;76798;-92
2023/09/11 05:26:05;;;;;;;13.10;3.70;;;;;;;22.99;36.86;101001.06;104658;1297;72481;-90
2023/09/11 05:28:35;;;;;;;9.80;2.80;;;;;;;22.97;37.00;100996.66;104826;1298;73006;-90
2023/09/11 05:31:02;;;;;;;16.80;3.30;;;;;;;23.00;37.02;100998.03;104447;1297;69195;-91
2023/09/11 05:33:28;;;;;;;11.10;3.10;;;;;;;23.00;37.03;100996.64;104586;1297;69119;-89
2023/09/11 05:35:53;;;;;;;6.90;2.80;;;;;;;23.00;37.16;100997.57;104332;1304;68311;-86
2023/09/11 05:38:21;;;;;;;11.80;3.00;;;;;;;22.99;37.21;100997.79;104401;1297;67176;-91
2023/09/11 05:40:46;;;;;;;9.40;2.60;;;;;;;22.98;37.19;100997.17;104429;1299;68481;-86
2023/09/11 05:43:12;;;;;;;9.70;2.40;;;;;;;23.00;37.26;100989.66;104523;1299;69252;-85
2023/09/11 05:45:38;;;;;;;22.40;3.50;;;;;;;23.01;37.29;100990.02;104967;1296;66882;-86
2023/09/11 05:48:15;;;;;;;13.20;3.50;;;;;;;23.02;37.35;100988.79;105009;1297;67378;-84
2023/09/11 05:50:42;;;;;;;14.20;2.70;;;;;;;23.07;37.49;100990.08;105079;1297;73427;-84
2023/09/11 05:53:08;;;;;;;11.40;2.70;;;;;;;23.13;37.50;100994.33;104875;1297;68873;-89
2023/09/11 05:55:37;;;;;;;7.80;2.40;;;;;;;23.20;37.56;100991.79;104791;1299;67819;-83
2023/09/11 05:58:02;;;;;;;7.20;2.80;;;;;;;23.28;37.56;100997.23;104688;1304;68741;-85
2023/09/11 06:00:28;;;;;;;6.50;2.50;;;;;;;23.34;37.52;101002.66;104995;1299;66865;-85
2023/09/11 06:02:54;;;;;;;9.00;2.30;;;;;;;23.40;37.53;101001.63;104630;1302;68141;-86
2023/09/11 06:05:25;;;;;;;10.80;2.90;;;;;;;23.42;37.46;101001.83;104666;1299;69023;-87
2023/09/11 06:09:20;;;;;;;8.80;2.20;;;;;;;23.46;37.25;100998.27;105261;1292;600801;-92
2023/09/11 06:11:56;;;;;;;7.60;2.90;;;;;;;23.45;37.24;101001.41;105762;1291;67406;31
2023/09/11 06:14:25;;;;;;;7.70;2.30;;;;;;;23.46;37.11;101002.85;105532;1291;68973;-88
2023/09/11 06:54:23;;;;;;;13.10;5.20;;;;;;;23.64;36.05;101024.48;104126;1305;66678;-86
2023/09/11 06:56:48;;;;;;;11.80;5.60;;;;;;;23.64;35.93;101025.61;103971;1305;69232;-87
2023/09/11 07:16:47;;;;;;;13.90;4.30;;;;;;;23.75;35.72;101022.20;104709;1298;67007;-83
2023/09/11 07:19:26;;;;;;;13.00;3.70;;;;;;;23.77;35.61;101027.07;103753;1304;73774;-86
2023/09/11 07:21:54;;;;;;;16.20;4.00;;;;;;;23.78;35.39;101028.10;104022;1306;69136;-86
2023/09/11 07:24:20;;;;;;;10.90;3.80;;;;;;;23.80;35.45;101028.34;103246;1306;67899;-87
2023/09/11 07:26:45;;;;;;;9.20;3.60;;;;;;;23.84;35.42;101025.30;103673;1308;68108;-85
2023/09/11 07:29:11;;;;;;;12.20;4.00;;;;;;;23.89;35.37;101026.27;103652;1305;68203;-86
2023/09/11 07:43:22;;;;;;;12.20;3.10;;;;;;;23.89;35.00;101017.06;83343;1308;68522;-90
2023/09/11 07:49:37;;;;;;;12.10;2.50;;;;;;;23.84;34.89;101023.18;104538;1305;66266;-91
2023/09/11 08:04:35;;;;;;;5.40;1.90;;;;;;;23.87;34.23;101008.08;104577;1299;69140;-91
2023/09/11 08:13:53;;;;;;;12.30;2.50;;;;;;;23.85;33.96;100997.85;104227;1303;69198;-91
2023/09/11 08:19:07;;;;;;;9.40;2.20;;;;;;;23.89;33.97;100991.83;104014;1307;69230;-89
2023/09/11 08:45:55;;;;;;;16.10;2.40;;;;;;;24.05;32.97;100977.91;103988;1307;543778;-91
2023/09/11 09:16:03;;;;;;;11.30;2.50;;;;;;;24.28;32.34;100955.77;85793;1307;67267;-93
2023/09/11 09:25:50;;;;;;;12.80;2.10;;;;;;;24.36;32.34;100948.11;85091;1311;67315;-88
2023/09/11 09:53:41;;;;;;;12.60;2.40;;;;;;;24.52;31.80;100926.30;103752;1310;72457;-91
2023/09/11 09:56:33;;;;;;;13.80;2.80;;;;;;;24.52;31.74;100921.81;82768;1306;67035;-89
2023/09/11 09:59:02;;;;;;;10.00;2.60;;;;;;;24.54;31.50;100916.51;103324;1313;69198;-89
2023/09/11 10:11:37;;;;;;;48.80;5.80;;;;;;;24.64;31.87;100907.06;89916;1307;67933;31
2023/09/11 10:15:21;;;;;;;14.80;3.90;;;;;;;24.68;32.00;100905.48;93579;1305;67754;31
2023/09/11 10:30:25;;;;;;;13.50;3.10;;;;;;;24.83;32.01;100880.53;103154;1313;69384;-89
2023/09/11 10:33:00;;;;;;;11.30;3.30;;;;;;;24.88;32.24;100878.56;103486;1309;69195;-91
2023/09/11 10:35:47;;;;;;;19.80;3.10;;;;;;;24.89;32.15;100873.98;103513;1308;66670;-91
2023/09/11 10:38:23;;;;;;;16.70;3.40;;;;;;;24.90;32.29;100871.19;103516;1311;73765;-90
2023/09/11 10:47:44;;;;;;;;;;;;;;;;;;;;;
2023/09/11 10:50:24;;;;;;;16.50;2.40;;;;;;;24.92;31.55;100851.40;103326;1309;67306;-86
2023/09/11 10:52:56;;;;;;;23.90;2.90;;;;;;;24.94;31.44;100850.39;102473;1311;73567;-86
2023/09/11 10:55:23;;;;;;;18.20;4.20;;;;;;;24.95;31.43;100846.07;102629;1311;69246;-85
2023/09/11 10:57:51;;;;;;;23.30;3.20;;;;;;;24.95;31.34;100845.30;102543;1312;68517;-85
2023/09/11 11:00:17;;;;;;;19.60;3.60;;;;;;;24.94;31.21;100850.92;102566;1310;69132;-86
2023/09/11 11:02:43;;;;;;;18.80;4.70;;;;;;;24.93;31.14;100849.33;102619;1315;69195;-85
2023/09/11 11:05:13;;;;;;;16.70;4.10;;;;;;;24.93;31.12;100847.31;102366;1312;69300;-85
2023/09/11 11:07:39;;;;;;;17.70;4.00;;;;;;;24.93;31.14;100841.66;102485;1317;69145;-85
2023/09/11 11:10:15;;;;;;;45.10;7.10;;;;;;;24.96;31.09;100834.69;102379;1312;69488;-91
2023/09/11 11:12:42;;;;;;;21.60;6.60;;;;;;;24.97;31.06;100832.57;102438;1311;69314;-86
2023/09/11 11:15:30;;;;;;;18.90;4.50;;;;;;;24.97;31.06;100827.83;102740;1311;66944;-89
2023/09/11 11:18:23;;;;;;;10.40;3.60;;;;;;;24.97;31.05;100826.49;102801;1314;73669;-90
2023/09/11 11:21:05;;;;;;;9.50;3.60;;;;;;;24.94;30.86;100816.94;102663;1311;72832;-89
2023/09/11 11:23:35;;;;;;;14.10;4.70;;;;;;;24.92;30.83;100818.61;102364;1315;69311;-84
2023/09/11 11:26:04;;;;;;;13.60;5.50;;;;;;;24.93;30.77;100816.08;102382;1311;69201;-85
2023/09/11 11:28:41;;;;;;;18.30;6.70;;;;;;;24.93;30.68;100813.35;102461;1311;68120;-85
2023/09/11 11:31:13;;;;;;;18.90;5.80;;;;;;;24.95;30.79;100812.10;102605;1311;73622;-85
2023/09/11 11:33:38;;;;;;;13.70;4.50;;;;;;;24.97;30.78;100809.40;102332;1312;69077;-85
2023/09/11 11:36:07;;;;;;;9.10;3.70;;;;;;;24.98;30.80;100807.58;102339;1317;72791;-85
2023/09/11 11:38:34;;;;;;;21.50;3.50;;;;;;;24.99;30.73;100803.72;102293;1312;69267;-85
2023/09/11 11:41:00;;;;;;;16.70;4.30;;;;;;;25.00;30.59;100799.69;102496;1314;76152;-84
2023/09/11 11:43:26;;;;;;;10.90;4.90;;;;;;;25.02;30.54;100794.37;102370;1311;69318;-85
2023/09/11 11:45:57;;;;;;;14.00;3.60;;;;;;;25.03;30.54;100794.20;102436;1311;67294;-90
2023/09/11 11:48:23;;;;;;;45.20;5.90;;;;;;;25.06;30.59;100793.39;102548;1314;69224;-85
2023/09/11 11:50:48;;;;;;;27.70;4.30;;;;;;;25.09;30.55;100792.63;102227;1311;69794;-84
2023/09/11 11:53:20;;;;;;;25.40;3.00;;;;;;;25.12;30.52;100793.16;102223;1311;69503;-84
2023/09/11 11:55:45;;;;;;;10.10;2.50;;;;;;;25.12;30.39;100783.89;102274;1314;75037;-84
2023/09/11 11:58:15;;;;;;;17.30;2.80;;;;;;;25.11;30.26;100781.64;102444;1313;69355;-85
2023/09/11 12:00:41;;;;;;;14.80;3.80;;;;;;;25.10;30.25;100783.14;102244;1313;69302;-84
2023/09/11 12:03:07;;;;;;;18.40;2.90;;;;;;;25.11;30.29;100785.30;102243;1314;66973;-84
2023/09/11 12:05:36;;;;;;;16.40;3.70;;;;;;;25.10;30.32;100781.96;102512;1314;69327;-85
2023/09/11 12:08:02;;;;;;;12.20;4.40;;;;;;;25.11;30.37;100778.66;102589;1311;74893;-85
2023/09/11 12:10:28;;;;;;;11.40;3.70;;;;;;;25.12;30.38;100781.17;103695;1311;69249;-85
2023/09/11 12:12:55;;;;;;;14.00;2.90;;;;;;;25.11;30.47;100779.83;102494;1311;69364;-90
2023/09/11 12:15:20;;;;;;;9.90;2.90;;;;;;;25.10;30.26;100773.62;102251;1313;69243;-84
2023/09/11 12:17:48;;;;;;;8.30;2.50;;;;;;;25.09;30.19;100769.88;102517;1317;69330;-84
2023/09/11 12:20:16;;;;;;;4.10;2.10;;;;;;;25.08;30.15;100767.30;102498;1314;69170;-84
2023/09/11 12:22:43;;;;;;;12.80;2.60;;;;;;;25.06;30.15;100762.29;102356;1311;69193;-84
2023/09/11 12:25:08;;;;;;;9.20;3.20;;;;;;;25.04;30.12;100757.11;102328;1311;69364;-85
2023/09/11 12:27:35;;;;;;;8.60;3.10;;;;;;;25.05;30.14;100755.05;102174;1311;69269;-84
2023/09/11 12:30:03;;;;;;;7.60;3.60;;;;;;;25.06;30.13;100747.25;101978;1311;69260;-84
2023/09/11 12:32:29;;;;;;;13.90;3.40;;;;;;;25.07;30.01;100741.73;102192;1313;73574;-84
2023/09/11 12:34:55;;;;;;;7.80;2.70;;;;;;;25.10;29.93;100738.30;102076;1314;69428;-84
2023/09/11 12:37:20;;;;;;;12.20;2.40;;;;;;;25.10;29.97;100738.20;102370;1311;69314;-84
2023/09/11 12:39:47;;;;;;;4.90;2.30;;;;;;;25.10;30.02;100734.50;102423;1312;69343;-90
2023/09/11 12:42:15;;;;;;;8.10;2.70;;;;;;;25.10;29.99;100733.00;102108;1315;67496;-84
2023/09/11 12:44:41;;;;;;;9.80;2.70;;;;;;;25.11;30.02;100734.02;102228;1311;69241;-85
2023/09/11 12:47:06;;;;;;;11.40;2.70;;;;;;;25.12;29.99;100734.27;102225;1311;69308;-84
2023/09/11 12:49:32;;;;;;;8.20;3.10;;;;;;;25.13;30.02;100733.69;102119;1318;69308;-85
2023/09/11 12:51:57;;;;;;;6.30;2.30;;;;;;;25.15;30.05;100730.92;102554;1311;69124;-86
2023/09/11 12:54:31;;;;;;;9.20;3.20;;;;;;;25.16;29.98;100733.98;102338;1311;70040;-84
2023/09/11 12:56:56;;;;;;;10.10;3.10;;;;;;;25.17;29.91;100732.22;102400;1312;68985;-84
2023/09/11 12:59:22;;;;;;;6.20;3.50;;;;;;;25.18;29.80;100737.27;102392;1311;69343;-84
2023/09/11 13:01:58;;;;;;;9.80;3.00;;;;;;;25.19;29.82;100732.31;102403;1314;69288;-84
2023/09/11 13:04:24;;;;;;;7.70;2.70;;;;;;;25.20;29.91;100728.02;102470;1311;69148;-84
2023/09/11 13:06:51;;;;;;;7.80;2.80;;;;;;;25.20;29.87;100729.76;102453;1311;69308;-85
2023/09/11 13:09:23;;;;;;;8.60;3.40;;;;;;;25.20;29.82;100725.70;102411;1311;67497;-83
2023/09/11 13:11:50;;;;;;;11.70;4.20;;;;;;;25.19;29.81;100722.67;102417;1311;67418;-90
2023/09/11 13:14:16;;;;;;;5.20;3.30;;;;;;;25.20;29.92;100722.97;102774;1314;67887;-89
2023/09/11 13:16:47;;;;;;;9.50;2.90;;;;;;;25.21;29.82;100721.63;102739;1311;69265;-90
2023/09/11 13:19:12;;;;;;;12.70;2.60;;;;;;;25.20;29.85;100719.23;102531;1314;73632;-90
2023/09/11 13:21:38;;;;;;;6.20;2.50;;;;;;;25.19;29.80;100711.08;102430;1312;69321;-89
2023/09/11 13:24:04;;;;;;;5.30;3.10;;;;;;;25.19;29.80;100711.25;102752;1311;69415;-90
2023/09/11 13:26:30;;;;;;;5.80;3.10;;;;;;;25.19;29.78;100708.14;102804;1311;69119;-89
2023/09/11 13:28:55;;;;;;;9.70;2.50;;;;;;;25.20;29.78;100714.62;102723;1311;69088;-89
2023/09/11 13:31:21;;;;;;;7.80;2.60;;;;;;;25.21;29.92;100711.89;102774;1312;69345;-89
2023/09/11 13:33:47;;;;;;;9.60;3.00;;;;;;;25.21;29.84;100709.11;102815;1311;69250;-89
2023/09/11 13:36:13;;;;;;;9.20;2.60;;;;;;;25.21;29.81;100707.30;102596;1316;69238;-90
2023/09/11 13:38:39;;;;;;;16.40;3.30;;;;;;;25.21;29.90;100706.07;102825;1311;69324;-90
2023/09/11 13:41:04;;;;;;;15.50;3.30;;;;;;;25.22;29.97;100703.44;102826;1311;67752;-89
2023/09/11 13:43:30;;;;;;;13.70;3.60;;;;;;;25.23;29.96;100701.27;102387;1317;69250;-90
2023/09/11 13:45:56;;;;;;;17.50;3.90;;;;;;;25.24;29.97;100701.80;102797;1317;69280;-87
2023/09/11 13:48:31;;;;;;;18.80;3.80;;;;;;;25.25;30.04;100698.96;102522;1311;69920;-89
2023/09/11 13:50:56;;;;;;;22.30;4.10;;;;;;;25.26;30.10;100693.43;102368;1317;73627;-89
2023/09/11 13:53:22;;;;;;;21.20;3.70;;;;;;;25.28;30.10;100690.89;102755;1311;68269;-89
2023/09/11 13:55:53;;;;;;;15.80;4.00;;;;;;;25.28;30.15;100688.98;102749;1315;69088;-89
2023/09/11 13:58:18;;;;;;;12.70;3.70;;;;;;;25.29;30.15;100685.15;102780;1311;69454;-89
2023/09/11 14:00:44;;;;;;;16.00;3.60;;;;;;;25.30;30.18;100683.08;102573;1313;69156;-89
2023/09/11 14:03:10;;;;;;;13.80;3.80;;;;;;;25.31;30.27;100683.63;102639;1311;69189;-89
2023/09/11 14:05:36;;;;;;;23.10;5.10;;;;;;;25.31;30.21;100680.17;102872;1311;66933;-89
2023/09/11 14:08:03;;;;;;;22.30;4.40;;;;;;;25.31;30.28;100676.27;102441;1311;69318;-88
2023/09/11 14:10:29;;;;;;;24.80;4.30;;;;;;;25.31;30.28;100676.16;102709;1311;69301;-88
2023/09/11 14:12:55;;;;;;;16.30;3.90;;;;;;;25.31;30.30;100676.94;102416;1311;69183;-88
2023/09/11 14:15:38;;;;;;;43.00;6.10;;;;;;;25.30;30.25;100676.59;102451;1311;69341;-93
2023/09/11 14:18:03;;;;;;;32.00;5.80;;;;;;;25.29;30.43;100677.78;102477;1311;69336;-88
2023/09/11 14:20:29;;;;;;;36.40;5.70;;;;;;;25.29;30.36;100680.41;102325;1311;69289;-86
2023/09/11 14:22:55;;;;;;;33.10;5.30;;;;;;;25.27;30.41;100681.83;102238;1312;66908;-88
2023/09/11 14:25:20;;;;;;;25.60;5.60;;;;;;;25.27;30.31;100677.46;102350;1311;67408;-88
2023/09/11 14:27:46;;;;;;;19.50;3.70;;;;;;;25.25;30.43;100675.38;102065;1311;69310;-89
2023/09/11 14:30:12;;;;;;;18.50;3.90;;;;;;;25.24;30.40;100674.83;102166;1313;69218;-89
2023/09/11 14:32:49;;;;;;;28.80;5.10;;;;;;;25.23;30.47;100671.54;102699;1311;69128;-87
2023/09/11 14:35:14;;;;;;;24.10;4.20;;;;;;;25.22;30.48;100669.20;102441;1311;67381;-88
2023/09/11 14:37:40;;;;;;;19.30;3.40;;;;;;;25.21;30.44;100665.29;102501;1311;69122;-88
2023/09/11 14:40:06;;;;;;;15.00;3.20;;;;;;;25.20;30.43;100662.58;102423;1315;69247;-88
2023/09/11 14:42:33;;;;;;;13.00;3.10;;;;;;;25.19;30.39;100663.91;102488;1311;69329;-88
2023/09/11 14:44:59;;;;;;;23.50;4.60;;;;;;;25.18;30.46;100659.41;102328;1311;69218;-88
2023/09/11 14:47:24;;;;;;;20.60;4.40;;;;;;;25.17;30.39;100659.42;102578;1312;69163;-88
2023/09/11 14:49:50;;;;;;;25.20;4.60;;;;;;;25.17;30.44;100657.99;102565;1311;69298;-88
2023/09/11 14:52:16;;;;;;;23.90;4.60;;;;;;;25.16;30.52;100656.65;102581;1314;69172;-88
2023/09/11 14:54:45;;;;;;;35.40;5.90;;;;;;;25.16;30.55;100661.19;102548;1313;69167;-88
2023/09/11 14:59:50;;;;;;;45.80;6.40;;;;;;;25.15;30.63;100655.35;102248;1314;69288;-88
2023/09/11 15:02:16;;;;;;;40.50;5.50;;;;;;;25.15;30.69;100654.21;102179;1315;69490;-88
2023/09/11 15:04:42;;;;;;;27.20;5.20;;;;;;;25.15;30.67;100655.50;102516;1314;67967;-88
2023/09/11 15:07:08;;;;;;;26.00;5.40;;;;;;;25.14;30.84;100655.05;102652;1312;69330;-88
2023/09/11 15:09:34;;;;;;;36.60;6.00;;;;;;;25.15;30.82;100654.22;102509;1317;67383;-88
2023/09/11 15:12:00;;;;;;;39.90;6.60;;;;;;;25.14;30.88;100649.48;102447;1315;69199;-88